createdAt,value
2023-05-17T00:02:15.621Z,14.82
2023-05-17T00:04:42.853Z,17.88
2023-05-17T00:07:16.306Z,16.73
2023-05-17T00:09:43.459Z,19.27
2023-05-17T00:12:10.876Z,19.40
2023-05-17T00:14:44.284Z,18.05
2023-05-17T00:17:11.504Z,18.30
2023-05-17T00:19:45.438Z,18.33
2023-05-17T00:22:12.773Z,17.70
2023-05-17T00:24:39.936Z,19.20
2023-05-17T00:27:13.277Z,16.13
2023-05-17T00:29:40.505Z,11.40
2023-05-17T00:32:14.319Z,9.45
2023-05-17T00:34:41.665Z,11.52
2023-05-17T00:37:08.964Z,11.38
2023-05-17T00:39:42.296Z,9.75
2023-05-17T00:42:10.050Z,10.13
2023-05-17T00:44:43.384Z,8.80
2023-05-17T00:47:10.863Z,6.07
2023-05-17T00:49:38.101Z,5.60
2023-05-17T00:52:12.295Z,4.82
2023-05-17T00:54:40.236Z,3.75
2023-05-17T00:57:14.290Z,3.13
2023-05-17T00:59:48.282Z,2.70
2023-05-17T01:02:22.317Z,2.72
2023-05-17T01:04:56.444Z,2.42
2023-05-17T01:07:30.281Z,2.40
2023-05-17T01:10:04.319Z,1.85
2023-05-17T01:12:37.896Z,2.05
2023-05-17T01:15:17.461Z,2.00
2023-05-17T01:18:11.300Z,2.05
2023-05-17T01:20:46.272Z,2.10
2023-05-17T01:23:13.409Z,2.20
2023-05-17T01:25:56.337Z,2.10
2023-05-17T01:28:23.913Z,2.22
2023-05-17T01:33:31.401Z,1.98
2023-05-17T01:35:58.652Z,1.60
2023-05-17T01:38:39.537Z,1.90
2023-05-17T01:41:18.658Z,1.55
2023-05-17T01:44:18.306Z,1.48
2023-05-17T01:46:48.095Z,1.38
2023-05-17T01:49:29.302Z,1.30
2023-05-17T01:52:06.503Z,1.38
2023-05-17T01:54:44.319Z,1.33
2023-05-17T01:57:12.397Z,1.00
2023-05-17T01:59:46.301Z,1.00
2023-05-17T02:02:14.031Z,1.33
2023-05-17T02:04:47.390Z,1.27
2023-05-17T02:07:34.303Z,1.33
2023-05-17T02:10:08.346Z,1.42
2023-05-17T02:12:35.513Z,1.13
2023-05-17T02:15:02.706Z,1.40
2023-05-17T02:17:36.594Z,1.42
2023-05-17T02:20:04.404Z,1.00
2023-05-17T02:22:31.544Z,2.17
2023-05-17T02:25:05.317Z,1.23
2023-05-17T02:27:32.594Z,1.58
2023-05-17T02:30:06.362Z,1.58
2023-05-17T02:32:33.920Z,1.50
2023-05-17T02:37:34.416Z,1.70
2023-05-17T02:40:01.891Z,2.83
2023-05-17T02:42:35.352Z,1.38
2023-05-17T02:45:02.700Z,1.65
2023-05-17T02:47:30.109Z,1.90
2023-05-17T02:50:03.326Z,1.73
2023-05-17T02:52:30.569Z,2.10
2023-05-17T02:55:04.380Z,1.95
2023-05-17T02:57:31.633Z,2.10
2023-05-17T02:59:58.756Z,2.20
2023-05-17T03:02:32.379Z,2.00
2023-05-17T03:04:59.627Z,1.95
2023-05-17T03:07:39.519Z,2.00
2023-05-17T03:10:07.433Z,1.92
2023-05-17T03:12:34.641Z,2.00
2023-05-17T03:15:08.401Z,1.90
2023-05-17T03:17:35.670Z,1.90
2023-05-17T03:20:09.373Z,1.85
2023-05-17T03:22:37.014Z,1.60
2023-05-17T03:27:39.463Z,1.30
2023-05-17T03:30:06.997Z,1.33
2023-05-17T03:32:40.580Z,1.08
2023-05-17T03:35:08.489Z,1.35
2023-05-17T03:40:16.485Z,1.10
2023-05-17T03:42:50.465Z,1.20
2023-05-17T03:45:17.715Z,0.60
2023-05-17T03:47:51.522Z,0.80
2023-05-17T03:50:18.835Z,0.82
2023-05-17T03:52:46.306Z,1.13
2023-05-17T03:55:20.380Z,0.88
2023-05-17T03:57:47.649Z,0.60
2023-05-17T04:00:27.392Z,0.60
2023-05-17T04:02:54.714Z,0.55
2023-05-17T04:05:25.009Z,0.60
2023-05-17T04:07:58.358Z,0.30
2023-05-17T04:10:25.630Z,0.40
2023-05-17T04:12:59.516Z,0.45
2023-05-17T04:15:26.818Z,0.40
2023-05-17T04:17:54.098Z,0.40
2023-05-17T04:20:28.353Z,0.43
2023-05-17T04:22:55.583Z,0.43
2023-05-17T04:25:32.418Z,0.40
2023-05-17T04:27:59.649Z,0.50
2023-05-17T04:30:26.782Z,0.50
2023-05-17T04:33:00.525Z,0.50
2023-05-17T04:35:28.079Z,0.30
2023-05-17T04:40:29.759Z,1.30
2023-05-17T04:42:56.994Z,0.63
2023-05-17T04:45:31.357Z,0.90
2023-05-17T04:47:59.492Z,0.52
2023-05-17T04:50:33.514Z,0.40
2023-05-17T04:53:00.800Z,0.82
2023-05-17T04:55:28.114Z,0.47
2023-05-17T04:58:02.352Z,0.40
2023-05-17T05:00:29.610Z,0.30
2023-05-17T05:03:03.470Z,0.50
2023-05-17T05:05:31.389Z,0.50
2023-05-17T05:08:12.345Z,0.60
2023-05-17T05:10:39.484Z,0.57
2023-05-17T05:13:06.730Z,0.50
2023-05-17T05:15:40.335Z,0.40
2023-05-17T05:18:07.735Z,0.30
2023-05-17T05:20:41.493Z,0.35
2023-05-17T05:23:15.517Z,0.30
2023-05-17T05:25:44.098Z,0.50
2023-05-17T05:28:12.193Z,0.55
2023-05-17T05:30:46.593Z,0.50
2023-05-17T05:33:14.011Z,0.60
2023-05-17T05:35:41.291Z,0.60
2023-05-17T05:38:15.405Z,0.52
2023-05-17T05:40:42.706Z,0.80
2023-05-17T05:43:09.838Z,0.80
2023-05-17T05:45:43.353Z,0.82
2023-05-17T05:48:10.555Z,0.60
2023-05-17T05:50:44.547Z,0.57
2023-05-17T05:53:18.709Z,0.85
2023-05-17T05:55:53.471Z,0.90
2023-05-17T05:58:23.073Z,0.50
2023-05-17T06:00:50.781Z,0.57
2023-05-17T06:05:51.857Z,0.60
2023-05-17T06:08:31.389Z,0.90
2023-05-17T06:10:58.682Z,0.45
2023-05-17T06:13:32.356Z,0.60
2023-05-17T06:15:59.712Z,0.70
2023-05-17T06:18:33.455Z,0.88
2023-05-17T06:21:00.847Z,0.68
2023-05-17T06:23:28.119Z,0.65
2023-05-17T06:26:02.589Z,0.63
2023-05-17T06:28:29.866Z,0.80
2023-05-17T06:31:03.384Z,0.93
2023-05-17T06:33:30.922Z,0.90
2023-05-17T06:38:31.632Z,0.90
2023-05-17T06:41:05.511Z,1.20
2023-05-17T06:43:33.738Z,1.15
2023-05-17T06:46:08.539Z,1.42
2023-05-17T06:48:35.971Z,0.88
2023-05-17T06:51:03.346Z,0.90
2023-05-17T06:53:37.389Z,1.02
2023-05-17T06:56:04.733Z,1.35
2023-05-17T06:58:39.557Z,0.98
2023-05-17T07:01:06.903Z,0.88
2023-05-17T07:03:34.197Z,1.00
2023-05-17T07:06:08.363Z,0.70
2023-05-17T07:08:42.471Z,1.17
2023-05-17T07:11:16.552Z,1.40
2023-05-17T07:13:43.890Z,1.10
2023-05-17T07:16:11.183Z,0.90
2023-05-17T07:18:44.422Z,1.23
2023-05-17T07:21:12.588Z,1.10
2023-05-17T07:23:46.425Z,0.98
2023-05-17T07:26:13.671Z,1.70
2023-05-17T07:28:40.853Z,0.90
2023-05-17T07:31:14.377Z,1.10
2023-05-17T07:33:41.704Z,0.80
2023-05-17T07:36:15.557Z,0.70
2023-05-17T07:38:42.954Z,1.23
2023-05-17T07:41:10.668Z,1.00
2023-05-17T07:46:11.617Z,0.90
2023-05-17T07:48:38.890Z,1.05
2023-05-17T07:51:12.412Z,1.02
2023-05-17T07:53:39.715Z,1.30
2023-05-17T07:56:13.424Z,1.00
2023-05-17T07:58:40.829Z,0.90
2023-05-17T08:01:09.786Z,0.85
2023-05-17T08:03:43.397Z,1.52
2023-05-17T08:06:10.799Z,0.98
2023-05-17T08:08:51.661Z,1.10
2023-05-17T08:11:18.979Z,0.77
2023-05-17T08:13:46.394Z,1.65
2023-05-17T08:16:20.658Z,0.95
2023-05-17T08:18:48.302Z,0.68
2023-05-17T08:21:22.421Z,0.50
2023-05-17T08:23:49.620Z,0.57
2023-05-17T08:26:24.411Z,0.90
2023-05-17T08:28:51.963Z,1.13
2023-05-17T08:31:19.151Z,0.65
2023-05-17T08:33:52.436Z,0.70
2023-05-17T08:36:19.725Z,1.33
2023-05-17T08:38:46.964Z,0.40
2023-05-17T08:41:22.872Z,0.57
2023-05-17T08:43:51.005Z,0.95
2023-05-17T08:46:30.441Z,0.80
2023-05-17T08:49:00.325Z,0.60
2023-05-17T08:51:35.462Z,0.57
2023-05-17T08:54:06.145Z,0.73
2023-05-17T08:56:42.408Z,0.90
2023-05-17T08:59:19.536Z,0.60
2023-05-17T09:01:58.407Z,0.73
2023-05-17T09:04:32.489Z,0.82
2023-05-17T09:07:15.160Z,0.80
2023-05-17T09:10:02.395Z,0.90
2023-05-17T09:12:30.019Z,0.90
2023-05-17T09:17:30.699Z,0.60
2023-05-17T09:19:59.274Z,0.88
2023-05-17T09:22:33.447Z,0.98
2023-05-17T09:25:09.455Z,0.60
2023-05-17T09:27:36.580Z,0.38
2023-05-17T09:30:03.840Z,0.65
2023-05-17T09:32:37.595Z,0.63
2023-05-17T09:35:04.884Z,0.60
2023-05-17T09:37:32.247Z,0.50
2023-05-17T09:40:08.416Z,0.85
2023-05-17T09:42:46.550Z,0.82
2023-05-17T09:45:14.580Z,0.80
2023-05-17T09:47:41.958Z,0.60
2023-05-17T09:50:26.208Z,0.50
2023-05-17T09:52:54.157Z,0.57
2023-05-17T09:55:34.542Z,0.43
2023-05-17T09:58:04.884Z,0.70
2023-05-17T10:00:32.413Z,1.15
2023-05-17T10:03:06.535Z,0.63
2023-05-17T10:05:34.121Z,0.80
2023-05-17T10:10:50.639Z,0.80
2023-05-17T10:13:26.426Z,0.90
2023-05-17T10:15:54.333Z,0.70
2023-05-17T10:18:28.528Z,0.70
2023-05-17T10:20:56.734Z,0.77
2023-05-17T10:23:30.487Z,1.02
2023-05-17T10:25:58.193Z,0.70
2023-05-17T10:28:26.595Z,0.80
2023-05-17T10:31:01.450Z,0.60
2023-05-17T10:33:35.528Z,0.55
2023-05-17T10:36:03.430Z,0.57
2023-05-17T10:38:42.477Z,0.50
2023-05-17T10:41:12.486Z,0.50
2023-05-17T10:43:47.629Z,0.73
2023-05-17T10:46:21.576Z,0.55
2023-05-17T10:48:56.573Z,0.47
2023-05-17T10:51:25.119Z,0.50
2023-05-17T10:54:12.451Z,0.60
2023-05-17T10:56:48.464Z,0.52
2023-05-17T10:59:26.711Z,0.60
2023-05-17T11:02:01.470Z,0.47
2023-05-17T11:04:45.709Z,1.33
2023-05-17T11:07:25.507Z,0.70
2023-05-17T11:10:03.646Z,0.70
2023-05-17T11:12:40.233Z,0.40
2023-05-17T11:15:08.832Z,0.40
2023-05-17T11:17:56.534Z,0.40
2023-05-17T11:20:27.390Z,0.40
2023-05-17T11:23:05.463Z,0.47
2023-05-17T11:25:36.846Z,0.47
2023-05-17T11:28:25.617Z,0.68
2023-05-17T11:31:01.113Z,0.45
2023-05-17T11:33:46.821Z,0.82
2023-05-17T11:36:26.473Z,0.65
2023-05-17T11:39:12.394Z,0.35
2023-05-17T11:41:49.635Z,0.82
2023-05-17T11:44:26.081Z,0.80
2023-05-17T11:47:07.532Z,0.55
2023-05-17T11:49:37.393Z,0.47
2023-05-17T11:52:14.466Z,0.47
2023-05-17T11:54:43.138Z,0.80
2023-05-17T11:57:17.468Z,0.70
2023-05-17T11:59:44.748Z,0.55
2023-05-17T12:02:36.505Z,0.57
2023-05-17T12:05:10.587Z,0.60
2023-05-17T12:07:50.644Z,0.50
2023-05-17T12:10:18.298Z,0.70
2023-05-17T12:15:26.472Z,0.32
2023-05-17T12:18:01.597Z,0.30
2023-05-17T12:20:36.476Z,0.50
2023-05-17T12:23:03.603Z,0.88
2023-05-17T12:25:37.500Z,0.50
2023-05-17T12:28:15.133Z,0.88
2023-05-17T12:30:48.489Z,0.80
2023-05-17T12:33:16.125Z,0.65
2023-05-17T12:35:50.561Z,0.52
2023-05-17T12:38:18.177Z,0.55
2023-05-17T12:43:19.498Z,0.22
2023-05-17T12:45:55.200Z,0.60
2023-05-17T12:48:26.529Z,0.52
2023-05-17T12:51:02.486Z,0.82
2023-05-17T12:53:36.321Z,0.57
2023-05-17T12:56:10.726Z,0.63
2023-05-17T12:58:38.046Z,0.85
2023-05-17T13:01:14.530Z,0.50
2023-05-17T13:03:48.585Z,1.00
2023-05-17T13:06:22.541Z,0.57
2023-05-17T13:09:09.637Z,0.47
2023-05-17T13:11:41.170Z,0.70
2023-05-17T13:14:09.312Z,0.57
2023-05-17T13:16:46.601Z,0.70
2023-05-17T13:19:20.743Z,0.50
2023-05-17T13:21:54.496Z,0.60
2023-05-17T13:24:28.521Z,0.50
2023-05-17T13:26:55.823Z,0.77
2023-05-17T13:29:38.962Z,0.55
2023-05-17T13:32:07.886Z,0.65
2023-05-17T13:34:41.633Z,0.88
2023-05-17T13:37:11.205Z,0.85
2023-05-17T13:39:39.611Z,0.65
2023-05-17T13:42:13.507Z,0.63
2023-05-17T13:44:49.638Z,0.73
2023-05-17T13:47:23.814Z,0.52
2023-05-17T13:49:51.242Z,0.60
2023-05-17T13:52:25.521Z,1.05
2023-05-17T13:54:52.742Z,0.68
2023-05-17T13:57:26.542Z,0.80
2023-05-17T13:59:53.675Z,1.05
2023-05-17T14:02:27.656Z,0.80
2023-05-17T14:04:55.472Z,0.75
2023-05-17T14:07:29.521Z,0.73
2023-05-17T14:10:04.880Z,0.93
2023-05-17T14:12:38.521Z,0.60
2023-05-17T14:15:06.051Z,0.47
2023-05-17T14:20:07.323Z,1.00
2023-05-17T14:22:41.562Z,0.45
2023-05-17T14:25:09.200Z,0.70
2023-05-17T14:30:12.810Z,0.93
2023-05-17T14:32:41.042Z,0.93
2023-05-17T14:35:15.534Z,0.77
2023-05-17T14:37:42.779Z,0.95
2023-05-17T14:40:16.540Z,0.80
2023-05-17T14:42:50.596Z,0.80
2023-05-17T14:45:17.965Z,0.73
2023-05-17T14:47:45.337Z,0.73
2023-05-17T14:50:19.554Z,0.55
2023-05-17T14:52:47.271Z,0.57
2023-05-17T14:55:22.800Z,0.80
2023-05-17T14:57:52.709Z,0.80
2023-05-17T15:00:22.278Z,0.80
2023-05-17T15:02:55.595Z,0.90
2023-05-17T15:05:23.005Z,0.88
2023-05-17T15:08:03.564Z,0.52
2023-05-17T15:10:31.721Z,0.85
2023-05-17T15:12:58.926Z,0.70
2023-05-17T15:15:32.541Z,0.50
2023-05-17T15:18:06.710Z,0.70
2023-05-17T15:20:33.948Z,0.70
2023-05-17T15:23:01.164Z,0.40
2023-05-17T15:25:34.541Z,0.70
2023-05-17T15:28:01.671Z,1.15
2023-05-17T15:30:35.577Z,0.85
2023-05-17T15:33:02.929Z,0.75
2023-05-17T15:35:30.584Z,0.70
2023-05-17T15:40:31.964Z,0.70
2023-05-17T15:43:05.743Z,0.70
2023-05-17T15:45:33.371Z,0.50
2023-05-17T15:48:02.221Z,0.57
2023-05-17T15:50:35.566Z,0.90
2023-05-17T15:53:02.861Z,0.73
2023-05-17T15:55:36.717Z,0.32
2023-05-17T15:58:07.093Z,0.60
2023-05-17T16:00:34.339Z,1.00
2023-05-17T16:03:08.617Z,1.02
2023-05-17T16:05:36.175Z,0.60
2023-05-17T16:10:57.609Z,0.63
2023-05-17T16:13:24.874Z,0.70
2023-05-17T16:15:52.099Z,0.90
2023-05-17T16:18:25.636Z,0.60
2023-05-17T16:21:06.581Z,0.47
2023-05-17T16:23:33.750Z,0.63
2023-05-17T16:26:01.445Z,0.90
2023-05-17T16:28:35.579Z,0.55
2023-05-17T16:31:04.572Z,0.77
2023-05-17T16:33:38.663Z,1.10
2023-05-17T16:36:06.067Z,0.57
2023-05-17T16:38:33.215Z,0.68
2023-05-17T16:41:09.589Z,0.90
2023-05-17T16:43:36.840Z,1.10
2023-05-17T16:46:10.735Z,1.17
2023-05-17T16:48:38.015Z,1.15
2023-05-17T16:51:05.723Z,0.73
2023-05-17T16:53:39.582Z,1.02
2023-05-17T16:56:06.800Z,1.17
2023-05-17T16:58:40.650Z,1.45
2023-05-17T17:01:07.975Z,1.05
2023-05-17T17:03:35.341Z,1.33
2023-05-17T17:06:08.727Z,1.15
2023-05-17T17:08:42.692Z,1.08
2023-05-17T17:11:16.612Z,1.05
2023-05-17T17:13:43.796Z,1.00
2023-05-17T17:16:11.732Z,1.20
2023-05-17T17:18:45.616Z,0.98
2023-05-17T17:21:13.462Z,1.23
2023-05-17T17:23:47.737Z,1.25
2023-05-17T17:26:15.988Z,1.33
2023-05-17T17:28:43.167Z,0.98
2023-05-17T17:31:16.580Z,1.17
2023-05-17T17:33:43.895Z,1.70
2023-05-17T17:36:17.728Z,0.85
2023-05-17T17:38:44.952Z,1.10
2023-05-17T17:41:12.115Z,1.00
2023-05-17T17:43:47.577Z,1.15
2023-05-17T17:46:14.859Z,1.25
2023-05-17T17:48:48.772Z,0.90
2023-05-17T17:51:16.008Z,0.95
2023-05-17T17:53:43.149Z,1.30
2023-05-17T17:56:16.648Z,1.02
2023-05-17T17:58:44.022Z,0.85
2023-05-17T18:01:17.668Z,1.33
2023-05-17T18:03:44.893Z,1.20
2023-05-17T18:06:12.024Z,1.10
2023-05-17T18:08:45.652Z,1.30
2023-05-17T18:11:19.611Z,1.17
2023-05-17T18:13:53.643Z,1.55
2023-05-17T18:16:21.156Z,1.55
2023-05-17T18:21:22.766Z,1.50
2023-05-17T18:23:50.049Z,1.42
2023-05-17T18:26:17.183Z,1.60
2023-05-17T18:28:50.682Z,1.50
2023-05-17T18:31:18.669Z,1.30
2023-05-17T18:33:53.739Z,1.40
2023-05-17T18:36:22.961Z,1.70
2023-05-17T18:38:56.771Z,1.70
2023-05-17T18:41:24.011Z,2.15
2023-05-17T18:43:51.297Z,2.05
2023-05-17T18:46:24.631Z,2.05
2023-05-17T18:48:52.667Z,1.48
2023-05-17T18:51:26.744Z,2.13
2023-05-17T18:53:55.203Z,2.45
2023-05-17T18:56:24.923Z,2.13
2023-05-17T18:59:01.783Z,1.80
2023-05-17T19:01:29.039Z,2.05
2023-05-17T19:03:56.519Z,2.10
2023-05-17T19:06:31.621Z,2.65
2023-05-17T19:09:05.677Z,2.28
2023-05-17T19:11:45.766Z,2.47
2023-05-17T19:14:14.682Z,1.90
2023-05-17T19:16:42.234Z,1.88
2023-05-17T19:19:15.793Z,1.60
2023-05-17T19:21:43.234Z,2.08
2023-05-17T19:24:10.606Z,1.85
2023-05-17T19:26:44.671Z,1.80
2023-05-17T19:29:11.851Z,2.63
2023-05-17T19:31:39.019Z,1.85
2023-05-17T19:34:12.686Z,1.95
2023-05-17T19:36:39.847Z,2.25
2023-05-17T19:39:07.509Z,1.92
2023-05-17T19:44:08.023Z,2.30
2023-05-17T19:46:41.856Z,1.98
2023-05-17T19:49:09.126Z,1.85
2023-05-17T19:51:36.445Z,2.10
2023-05-17T19:54:10.787Z,2.22
2023-05-17T19:56:38.142Z,2.00
2023-05-17T19:59:12.790Z,1.90
2023-05-17T20:01:40.136Z,2.83
2023-05-17T20:04:07.517Z,2.17
2023-05-17T20:09:15.730Z,2.33
2023-05-17T20:11:49.684Z,2.53
2023-05-17T20:14:16.897Z,2.72
2023-05-17T20:16:44.125Z,2.30
2023-05-17T20:19:17.699Z,2.10
2023-05-17T20:21:45.220Z,2.05
2023-05-17T20:24:18.692Z,2.33
2023-05-17T20:26:46.815Z,2.70
2023-05-17T20:29:13.973Z,2.20
2023-05-17T20:31:47.693Z,2.28
2023-05-17T20:34:14.945Z,2.47
2023-05-17T20:36:48.707Z,1.73
2023-05-17T20:39:16.001Z,2.40
2023-05-17T20:41:43.137Z,2.50
2023-05-17T20:44:16.660Z,3.22
2023-05-17T20:46:44.002Z,2.20
2023-05-17T20:49:17.706Z,2.47
2023-05-17T20:51:45.051Z,2.22
2023-05-17T20:54:12.461Z,2.53
2023-05-17T20:56:46.671Z,2.60
2023-05-17T20:59:13.841Z,3.05
2023-05-17T21:01:47.727Z,1.88
2023-05-17T21:04:15.150Z,2.97
2023-05-17T21:06:42.382Z,2.42
2023-05-17T21:09:15.679Z,2.20
2023-05-17T21:11:51.950Z,2.42
2023-05-17T21:14:25.715Z,2.72
2023-05-17T21:16:53.468Z,2.53
2023-05-17T21:19:20.944Z,2.22
2023-05-17T21:21:54.670Z,2.63
2023-05-17T21:24:21.974Z,2.50
2023-05-17T21:26:55.812Z,2.17
2023-05-17T21:29:23.145Z,2.40
2023-05-17T21:31:50.437Z,2.05
2023-05-17T21:34:23.819Z,2.33
2023-05-17T21:36:51.196Z,2.30
2023-05-17T21:39:18.337Z,2.75
2023-05-17T21:41:52.677Z,2.22
2023-05-17T21:44:20.084Z,2.40
2023-05-17T21:46:53.891Z,2.53
2023-05-17T21:49:21.492Z,2.35
2023-05-17T21:51:48.627Z,2.50
2023-05-17T21:54:22.785Z,2.88
2023-05-17T21:56:50.181Z,2.40
2023-05-17T21:59:23.711Z,2.33
2023-05-17T22:01:51.406Z,2.20
2023-05-17T22:04:18.606Z,2.45
2023-05-17T22:06:52.682Z,2.40
2023-05-17T22:09:26.870Z,2.15
2023-05-17T22:12:04.825Z,2.40
2023-05-17T22:14:33.486Z,3.15
2023-05-17T22:17:00.797Z,3.08
2023-05-17T22:19:36.730Z,2.60
2023-05-17T22:22:04.229Z,2.63
2023-05-17T22:24:37.684Z,3.22
2023-05-17T22:27:05.021Z,2.92
2023-05-17T22:29:39.797Z,2.47
2023-05-17T22:32:07.159Z,2.55
2023-05-17T22:34:34.499Z,2.92
2023-05-17T22:37:08.716Z,3.15
2023-05-17T22:39:35.934Z,2.13
2023-05-17T22:42:03.088Z,2.40
2023-05-17T22:44:36.921Z,2.95
2023-05-17T22:47:04.902Z,2.80
2023-05-17T22:49:42.684Z,2.67
2023-05-17T22:52:18.665Z,2.95
2023-05-17T22:54:52.862Z,2.55
2023-05-17T22:57:20.080Z,3.10
2023-05-17T23:00:00.741Z,3.35
2023-05-17T23:02:28.967Z,2.47
2023-05-17T23:04:57.115Z,2.95
2023-05-17T23:07:30.709Z,2.97
2023-05-17T23:10:05.371Z,2.45
2023-05-17T23:12:39.712Z,3.38
2023-05-17T23:15:08.013Z,2.60
2023-05-17T23:17:41.795Z,3.47
2023-05-17T23:20:12.974Z,3.15
2023-05-17T23:22:40.331Z,2.95
2023-05-17T23:25:14.701Z,3.17
2023-05-17T23:27:42.216Z,2.67
2023-05-17T23:30:15.878Z,2.53
2023-05-17T23:32:46.608Z,3.05
2023-05-17T23:35:13.954Z,2.70
2023-05-17T23:37:47.883Z,3.28
2023-05-17T23:40:15.488Z,3.75
2023-05-17T23:42:42.820Z,4.00
2023-05-17T23:45:16.712Z,3.05
2023-05-17T23:47:44.432Z,3.60
2023-05-17T23:50:18.750Z,4.72
2023-05-17T23:52:47.351Z,4.38
2023-05-17T23:55:14.567Z,4.10
2023-05-17T23:57:48.832Z,6.35
